createdAt,value
2018-05-08T00:00:21.666Z,3.00
2018-05-08T00:02:49.240Z,2.90
2018-05-08T00:05:16.800Z,3.07
2018-05-08T00:07:44.375Z,2.83
2018-05-08T00:10:11.923Z,2.90
2018-05-08T00:12:39.479Z,3.10
2018-05-08T00:15:07.084Z,2.93
2018-05-08T00:17:34.689Z,2.73
2018-05-08T00:20:02.961Z,3.20
2018-05-08T00:22:30.640Z,3.03
2018-05-08T00:24:58.189Z,2.93
2018-05-08T00:27:25.770Z,2.90
2018-05-08T00:29:53.329Z,3.03
2018-05-08T00:32:20.940Z,3.23
2018-05-08T00:34:48.494Z,3.07
2018-05-08T00:37:16.056Z,3.03
2018-05-08T00:39:43.620Z,3.10
2018-05-08T00:42:11.253Z,2.87
2018-05-08T00:44:38.796Z,2.70
2018-05-08T00:47:06.342Z,3.50
2018-05-08T00:49:33.901Z,3.37
2018-05-08T00:52:01.442Z,2.70
2018-05-08T00:54:40.850Z,2.70
2018-05-08T00:57:08.441Z,2.93
2018-05-08T00:59:36.045Z,3.20
2018-05-08T01:02:03.568Z,2.70
2018-05-08T01:04:31.159Z,2.93
2018-05-08T01:06:58.721Z,2.80
2018-05-08T01:09:26.311Z,2.90
2018-05-08T01:11:53.895Z,3.10
2018-05-08T01:14:21.508Z,3.40
2018-05-08T01:16:49.043Z,3.33
2018-05-08T01:19:16.653Z,3.43
2018-05-08T01:21:44.199Z,2.90
2018-05-08T01:24:12.245Z,3.07
2018-05-08T01:26:39.799Z,2.70
2018-05-08T01:29:07.423Z,2.93
2018-05-08T01:31:35.105Z,3.00
2018-05-08T01:34:02.668Z,3.30
2018-05-08T01:36:30.284Z,3.30
2018-05-08T01:38:57.904Z,3.50
2018-05-08T01:41:25.483Z,3.20
2018-05-08T01:43:53.066Z,3.40
2018-05-08T01:46:20.632Z,3.53
2018-05-08T01:48:48.278Z,3.23
2018-05-08T01:51:15.827Z,3.27
2018-05-08T01:53:43.462Z,3.00
2018-05-08T01:56:11.007Z,3.73
2018-05-08T01:58:38.576Z,3.80
2018-05-08T02:01:06.161Z,3.37
2018-05-08T02:03:33.775Z,3.30
2018-05-08T02:06:01.372Z,3.40
2018-05-08T02:08:28.994Z,3.43
2018-05-08T02:10:56.543Z,3.27
2018-05-08T02:13:24.550Z,3.30
2018-05-08T02:15:52.156Z,3.60
2018-05-08T02:18:20.157Z,3.40
2018-05-08T02:20:47.743Z,3.33
2018-05-08T02:23:15.339Z,3.50
2018-05-08T02:25:43.328Z,3.10
2018-05-08T02:28:10.905Z,3.33
2018-05-08T02:30:38.503Z,2.83
2018-05-08T02:33:06.096Z,3.20
2018-05-08T02:35:33.735Z,3.70
2018-05-08T02:38:01.348Z,2.63
2018-05-08T02:40:28.920Z,3.20
2018-05-08T02:42:56.488Z,3.33
2018-05-08T02:45:24.111Z,2.87
2018-05-08T02:47:51.683Z,3.53
2018-05-08T02:50:19.264Z,2.87
2018-05-08T02:52:46.846Z,3.13
2018-05-08T02:55:14.447Z,3.27
2018-05-08T02:57:42.012Z,3.20
2018-05-08T03:00:09.610Z,3.33
2018-05-08T03:02:37.203Z,3.53
2018-05-08T03:05:04.831Z,3.23
2018-05-08T03:07:32.416Z,3.53
2018-05-08T03:10:00.012Z,3.43
2018-05-08T03:12:27.627Z,3.40
2018-05-08T03:14:55.198Z,3.60
2018-05-08T03:17:22.798Z,3.47
2018-05-08T03:19:50.437Z,3.20
2018-05-08T03:22:18.043Z,2.93
2018-05-08T03:24:45.652Z,3.50
2018-05-08T03:27:13.207Z,3.27
2018-05-08T03:29:40.777Z,3.03
2018-05-08T03:32:08.351Z,2.70
2018-05-08T03:34:35.934Z,2.83
2018-05-08T03:37:03.479Z,3.30
2018-05-08T03:39:31.103Z,2.97
2018-05-08T03:41:58.664Z,3.37
2018-05-08T03:44:26.243Z,3.20
2018-05-08T03:46:53.797Z,2.77
2018-05-08T03:49:21.408Z,3.00
2018-05-08T03:51:48.984Z,3.30
2018-05-08T03:54:16.560Z,3.30
2018-05-08T03:56:44.127Z,3.30
2018-05-08T03:59:11.671Z,3.30
2018-05-08T04:01:50.916Z,3.50
2018-05-08T04:04:30.349Z,3.27
2018-05-08T04:07:10.518Z,3.37
2018-05-08T04:09:38.108Z,3.60
2018-05-08T04:12:05.683Z,3.37
2018-05-08T04:14:33.256Z,3.60
2018-05-08T04:17:01.192Z,3.00
2018-05-08T04:19:28.817Z,3.03
2018-05-08T04:21:56.387Z,3.33
2018-05-08T04:24:23.936Z,3.30
2018-05-08T04:26:51.501Z,2.60
2018-05-08T04:29:19.079Z,3.20
2018-05-08T04:31:46.699Z,2.87
2018-05-08T04:34:14.289Z,3.40
2018-05-08T04:36:41.937Z,3.10
2018-05-08T04:39:09.490Z,3.60
2018-05-08T04:41:37.117Z,3.60
2018-05-08T04:44:04.696Z,3.40
2018-05-08T04:46:32.303Z,3.50
2018-05-08T04:48:59.883Z,3.47
2018-05-08T04:51:27.499Z,3.60
2018-05-08T04:53:55.055Z,3.23
2018-05-08T04:56:22.658Z,3.50
2018-05-08T04:58:50.223Z,3.30
2018-05-08T05:01:17.859Z,3.40
2018-05-08T05:03:45.414Z,3.40
2018-05-08T05:06:13.003Z,3.23
2018-05-08T05:08:40.648Z,3.50
2018-05-08T05:11:08.747Z,3.20
2018-05-08T05:13:36.223Z,3.57
2018-05-08T05:16:03.795Z,3.77
2018-05-08T05:18:31.347Z,4.00
2018-05-08T05:20:58.902Z,3.90
2018-05-08T05:23:26.487Z,4.20
2018-05-08T05:25:54.100Z,4.90
2018-05-08T05:28:21.659Z,4.00
2018-05-08T05:30:49.307Z,4.40
2018-05-08T05:33:16.855Z,4.80
2018-05-08T05:35:44.411Z,5.10
2018-05-08T05:38:12.035Z,5.70
2018-05-08T05:40:39.594Z,6.30
2018-05-08T05:43:07.231Z,5.33
2018-05-08T05:45:34.801Z,5.33
2018-05-08T05:48:02.368Z,4.47
2018-05-08T05:50:29.925Z,4.37
2018-05-08T05:52:57.464Z,4.33
2018-05-08T05:55:25.036Z,4.00
2018-05-08T05:57:52.696Z,3.90
2018-05-08T06:00:20.256Z,3.70
2018-05-08T06:02:47.876Z,3.83
2018-05-08T06:05:15.464Z,3.93
2018-05-08T06:07:43.095Z,3.60
2018-05-08T06:10:10.647Z,3.30
2018-05-08T06:12:38.275Z,3.50
2018-05-08T06:15:05.891Z,2.73
2018-05-08T06:17:33.474Z,3.20
2018-05-08T06:20:01.027Z,3.20
2018-05-08T06:22:28.659Z,3.00
2018-05-08T06:24:56.198Z,3.07
2018-05-08T06:27:23.827Z,2.97
2018-05-08T06:29:51.368Z,2.77
2018-05-08T06:32:18.939Z,3.40
2018-05-08T06:34:46.474Z,3.30
2018-05-08T06:37:14.118Z,3.10
2018-05-08T06:39:41.963Z,3.10
2018-05-08T06:42:09.666Z,2.97
2018-05-08T06:44:37.377Z,3.00
2018-05-08T06:47:04.884Z,2.37
2018-05-08T06:49:32.441Z,2.40
2018-05-08T06:52:00.090Z,2.37
2018-05-08T06:54:27.675Z,2.40
2018-05-08T06:56:55.312Z,2.00
2018-05-08T06:59:22.888Z,2.10
2018-05-08T07:01:50.524Z,2.10
2018-05-08T07:04:18.075Z,2.30
2018-05-08T07:06:45.667Z,2.10
2018-05-08T07:09:13.298Z,2.00
2018-05-08T07:11:40.836Z,1.77
2018-05-08T07:14:08.439Z,2.03
2018-05-08T07:16:36.032Z,2.03
2018-05-08T07:19:03.984Z,1.73
2018-05-08T07:21:31.625Z,1.80
2018-05-08T07:23:59.306Z,2.00
2018-05-08T07:26:26.847Z,1.87
2018-05-08T07:28:54.396Z,1.90
2018-05-08T07:31:21.991Z,2.00
2018-05-08T07:33:49.632Z,1.93
2018-05-08T07:36:17.184Z,1.57
2018-05-08T07:38:44.811Z,1.87
2018-05-08T07:41:12.398Z,1.87
2018-05-08T07:43:40.000Z,1.60
2018-05-08T07:46:07.633Z,2.10
2018-05-08T07:48:35.213Z,1.80
2018-05-08T07:51:02.807Z,1.77
2018-05-08T07:53:30.399Z,2.13
2018-05-08T07:55:58.023Z,1.50
2018-05-08T07:58:25.637Z,1.80
2018-05-08T08:00:53.223Z,1.77
2018-05-08T08:03:20.882Z,1.73
2018-05-08T08:05:48.376Z,2.00
2018-05-08T08:08:15.965Z,1.97
2018-05-08T08:10:43.963Z,1.80
2018-05-08T08:13:11.519Z,2.10
2018-05-08T08:15:39.158Z,2.10
2018-05-08T08:18:07.171Z,1.80
2018-05-08T08:20:34.793Z,1.70
2018-05-08T08:23:02.783Z,1.80
2018-05-08T08:25:31.177Z,1.80
2018-05-08T08:27:58.753Z,2.10
2018-05-08T08:30:26.381Z,1.70
2018-05-08T08:32:53.940Z,1.67
2018-05-08T08:35:21.516Z,1.80
2018-05-08T08:37:49.116Z,2.10
2018-05-08T08:40:16.688Z,2.00
2018-05-08T08:42:44.285Z,2.10
2018-05-08T08:45:11.825Z,1.77
2018-05-08T08:47:39.504Z,1.73
2018-05-08T08:50:07.033Z,2.27
2018-05-08T08:52:34.648Z,2.43
2018-05-08T08:55:02.221Z,2.00
2018-05-08T08:57:29.814Z,1.93
2018-05-08T08:59:57.452Z,2.60
2018-05-08T09:02:34.056Z,2.20
2018-05-08T09:05:01.632Z,1.80
2018-05-08T09:07:29.264Z,2.10
2018-05-08T09:09:56.831Z,2.17
2018-05-08T09:12:24.411Z,2.10
2018-05-08T09:14:52.000Z,2.00
2018-05-08T09:17:19.588Z,2.00
2018-05-08T09:19:47.228Z,1.70
2018-05-08T09:22:14.742Z,2.77
2018-05-08T09:24:42.371Z,1.63
2018-05-08T09:27:09.984Z,1.73
2018-05-08T09:29:37.575Z,1.60
2018-05-08T09:32:05.140Z,2.00
2018-05-08T09:34:32.723Z,1.83
2018-05-08T09:37:00.271Z,1.70
2018-05-08T09:39:27.887Z,1.60
2018-05-08T09:41:55.512Z,1.83
2018-05-08T09:44:23.065Z,1.77
2018-05-08T09:46:50.598Z,1.73
2018-05-08T09:49:18.191Z,1.57
2018-05-08T09:51:45.819Z,1.73
2018-05-08T09:54:13.809Z,1.83
2018-05-08T09:56:41.475Z,1.77
2018-05-08T09:59:09.032Z,2.00
2018-05-08T10:01:36.854Z,1.60
2018-05-08T10:04:16.744Z,1.40
2018-05-08T10:06:44.288Z,1.67
2018-05-08T10:09:11.874Z,1.40
2018-05-08T10:11:39.418Z,2.10
2018-05-08T10:14:07.084Z,1.70
2018-05-08T10:16:34.637Z,1.63
2018-05-08T10:19:03.747Z,1.90
2018-05-08T10:21:31.516Z,1.50
2018-05-08T10:23:59.254Z,1.50
2018-05-08T10:26:27.342Z,1.50
2018-05-08T10:28:55.150Z,1.43
2018-05-08T10:31:22.966Z,1.50
2018-05-08T10:33:50.592Z,1.40
2018-05-08T10:36:18.185Z,1.43
2018-05-08T10:38:45.752Z,1.70
2018-05-08T10:41:13.303Z,1.63
2018-05-08T10:43:40.931Z,1.30
2018-05-08T10:46:08.523Z,1.43
2018-05-08T10:48:36.144Z,1.40
2018-05-08T10:51:03.772Z,1.53
2018-05-08T10:53:31.351Z,1.40
2018-05-08T10:55:58.880Z,1.40
2018-05-08T10:58:26.439Z,1.77
2018-05-08T11:00:53.987Z,1.70
2018-05-08T11:03:21.613Z,1.30
2018-05-08T11:05:49.191Z,1.50
2018-05-08T11:08:16.733Z,1.50
2018-05-08T11:10:44.289Z,1.60
2018-05-08T11:13:11.852Z,1.57
2018-05-08T11:15:39.432Z,1.20
2018-05-08T11:18:06.988Z,1.33
2018-05-08T11:20:34.554Z,1.30
2018-05-08T11:23:02.127Z,1.50
2018-05-08T11:25:29.763Z,1.50
2018-05-08T11:27:57.301Z,1.40
2018-05-08T11:30:24.922Z,1.27
2018-05-08T11:32:52.851Z,1.20
2018-05-08T11:35:20.443Z,1.40
2018-05-08T11:37:48.036Z,1.63
2018-05-08T11:40:15.619Z,1.50
2018-05-08T11:42:43.192Z,1.40
2018-05-08T11:45:10.802Z,1.70
2018-05-08T11:47:38.399Z,1.30
2018-05-08T11:50:06.121Z,1.40
2018-05-08T11:52:33.762Z,1.40
2018-05-08T11:55:01.711Z,1.20
2018-05-08T11:57:29.356Z,1.13
2018-05-08T11:59:57.428Z,1.47
2018-05-08T12:02:24.984Z,1.50
2018-05-08T12:04:52.636Z,1.30
2018-05-08T12:07:21.283Z,1.10
2018-05-08T12:09:48.851Z,1.00
2018-05-08T12:12:16.391Z,1.07
2018-05-08T12:14:43.948Z,1.30
2018-05-08T12:17:11.503Z,1.43
2018-05-08T12:19:41.059Z,1.40
2018-05-08T12:22:08.592Z,1.40
2018-05-08T12:24:36.175Z,1.37
2018-05-08T12:27:03.737Z,1.50
2018-05-08T12:29:33.319Z,1.40
2018-05-08T12:32:00.860Z,1.03
2018-05-08T12:34:28.456Z,1.13
2018-05-08T12:36:55.989Z,1.20
2018-05-08T12:39:23.608Z,1.20
2018-05-08T12:41:51.539Z,1.13
2018-05-08T12:44:19.181Z,1.00
2018-05-08T12:46:46.771Z,1.07
2018-05-08T12:49:14.344Z,1.20
2018-05-08T12:51:42.794Z,1.20
2018-05-08T12:54:10.340Z,1.30
2018-05-08T12:56:38.095Z,1.10
2018-05-08T12:59:05.718Z,1.20
2018-05-08T13:01:33.248Z,1.00
2018-05-08T13:04:00.876Z,1.33
2018-05-08T13:06:28.494Z,1.30
2018-05-08T13:08:56.068Z,1.23
2018-05-08T13:11:23.655Z,1.33
2018-05-08T13:13:51.207Z,1.20
2018-05-08T13:16:18.851Z,1.27
2018-05-08T13:18:46.420Z,1.27
2018-05-08T13:21:14.043Z,1.10
2018-05-08T13:23:41.593Z,1.23
2018-05-08T13:26:09.175Z,1.10
2018-05-08T13:28:36.723Z,1.10
2018-05-08T13:31:08.657Z,1.20
2018-05-08T13:33:37.329Z,1.20
2018-05-08T13:36:04.916Z,1.17
2018-05-08T13:38:32.512Z,1.20
2018-05-08T13:41:00.104Z,1.30
2018-05-08T13:43:27.639Z,1.30
2018-05-08T13:45:55.211Z,1.13
2018-05-08T13:48:22.770Z,1.60
2018-05-08T13:50:50.609Z,1.50
2018-05-08T13:53:18.200Z,1.00
2018-05-08T13:55:45.784Z,1.20
2018-05-08T13:58:13.347Z,1.20
2018-05-08T14:00:40.900Z,1.00
2018-05-08T14:03:09.530Z,1.03
2018-05-08T14:05:37.124Z,1.00
2018-05-08T14:08:04.751Z,1.00
2018-05-08T14:10:33.476Z,1.03
2018-05-08T14:13:01.031Z,1.03
2018-05-08T14:15:28.662Z,1.10
2018-05-08T14:17:56.194Z,1.03
2018-05-08T14:20:23.791Z,1.10
2018-05-08T14:22:51.423Z,1.00
2018-05-08T14:25:19.006Z,1.23
2018-05-08T14:27:46.621Z,1.33
2018-05-08T14:30:14.228Z,1.20
2018-05-08T14:32:41.857Z,1.20
2018-05-08T14:35:09.383Z,1.20
2018-05-08T14:37:37.011Z,1.10
2018-05-08T14:40:04.652Z,1.20
2018-05-08T14:42:32.343Z,1.17
2018-05-08T14:44:59.937Z,1.20
2018-05-08T14:47:27.612Z,1.20
2018-05-08T14:49:55.240Z,1.00
2018-05-08T14:52:23.308Z,1.30
2018-05-08T14:54:51.272Z,1.10
2018-05-08T14:57:26.197Z,1.30
2018-05-08T14:59:53.830Z,1.10
2018-05-08T15:02:21.464Z,1.10
2018-05-08T15:04:49.095Z,1.00
2018-05-08T15:07:16.744Z,1.30
2018-05-08T15:09:44.339Z,1.07
2018-05-08T15:12:12.543Z,1.10
2018-05-08T15:14:40.831Z,1.90
2018-05-08T15:17:08.454Z,1.20
2018-05-08T15:19:36.080Z,0.90
2018-05-08T15:22:03.777Z,1.20
2018-05-08T15:24:31.417Z,1.07
2018-05-08T15:26:59.076Z,1.40
2018-05-08T15:29:26.719Z,1.00
2018-05-08T15:31:54.357Z,1.00
2018-05-08T15:34:22.000Z,1.10
2018-05-08T15:36:49.621Z,1.10
2018-05-08T15:39:17.202Z,1.20
2018-05-08T15:41:44.800Z,1.10
2018-05-08T15:44:12.345Z,1.13
2018-05-08T15:46:39.897Z,1.00
2018-05-08T15:49:07.491Z,1.00
2018-05-08T15:51:35.460Z,0.97
2018-05-08T15:54:03.015Z,1.13
2018-05-08T15:56:30.954Z,1.40
2018-05-08T15:58:58.507Z,1.27
2018-05-08T16:01:26.080Z,1.10
2018-05-08T16:03:53.688Z,1.20
2018-05-08T16:06:21.242Z,1.10
2018-05-08T16:08:48.811Z,1.10
2018-05-08T16:11:16.352Z,1.20
2018-05-08T16:13:43.911Z,1.17
2018-05-08T16:16:11.483Z,1.10
2018-05-08T16:18:39.043Z,1.03
2018-05-08T16:21:06.656Z,1.00
2018-05-08T16:23:34.274Z,1.20
2018-05-08T16:26:01.834Z,1.07
2018-05-08T16:28:29.412Z,1.20
2018-05-08T16:30:56.988Z,1.20
2018-05-08T16:33:24.555Z,1.53
2018-05-08T16:35:52.122Z,1.20
2018-05-08T16:38:19.768Z,1.30
2018-05-08T16:40:47.302Z,1.30
2018-05-08T16:43:14.857Z,1.30
2018-05-08T16:45:42.423Z,1.47
2018-05-08T16:48:09.988Z,1.40
2018-05-08T16:50:37.557Z,1.40
2018-05-08T16:53:05.155Z,1.30
2018-05-08T16:55:32.720Z,1.50
2018-05-08T16:58:00.271Z,1.30
2018-05-08T17:00:27.850Z,1.67
2018-05-08T17:02:55.443Z,1.40
2018-05-08T17:05:22.989Z,1.20
2018-05-08T17:07:50.630Z,1.63
2018-05-08T17:10:18.170Z,1.30
2018-05-08T17:12:45.762Z,1.47
2018-05-08T17:15:13.296Z,1.40
2018-05-08T17:17:40.873Z,1.57
2018-05-08T17:20:08.505Z,1.30
2018-05-08T17:22:36.113Z,1.37
2018-05-08T17:25:03.701Z,1.40
2018-05-08T17:27:31.276Z,1.87
2018-05-08T17:29:58.827Z,1.77
2018-05-08T17:32:26.408Z,1.33
2018-05-08T17:34:53.991Z,1.57
2018-05-08T17:37:21.531Z,1.53
2018-05-08T17:39:49.103Z,1.73
2018-05-08T17:42:16.660Z,1.70
2018-05-08T17:44:44.283Z,1.50
2018-05-08T17:47:11.860Z,1.40
2018-05-08T17:49:39.423Z,1.33
2018-05-08T17:52:07.012Z,1.40
2018-05-08T17:54:34.543Z,1.43
2018-05-08T17:57:02.440Z,1.77
2018-05-08T17:59:30.029Z,1.50
2018-05-08T18:01:57.576Z,1.47
2018-05-08T18:04:26.174Z,1.60
2018-05-08T18:06:53.891Z,1.40
2018-05-08T18:09:21.478Z,1.43
2018-05-08T18:11:49.480Z,1.53
2018-05-08T18:14:17.054Z,1.80
2018-05-08T18:16:44.583Z,1.73
2018-05-08T18:19:12.168Z,1.60
2018-05-08T18:21:39.712Z,1.60
2018-05-08T18:24:07.310Z,1.57
2018-05-08T18:26:34.876Z,1.70
2018-05-08T18:29:02.497Z,1.63
2018-05-08T18:31:30.159Z,1.63
2018-05-08T18:33:57.795Z,1.83
2018-05-08T18:36:25.391Z,1.47
2018-05-08T18:38:53.020Z,1.50
2018-05-08T18:41:20.603Z,1.77
2018-05-08T18:43:48.196Z,1.33
2018-05-08T18:46:15.769Z,1.40
2018-05-08T18:48:43.801Z,1.53
2018-05-08T18:51:11.400Z,1.67
2018-05-08T18:53:39.419Z,1.60
2018-05-08T18:56:07.295Z,2.27
2018-05-08T18:58:35.112Z,1.23
2018-05-08T19:01:02.680Z,1.90
2018-05-08T19:03:30.394Z,2.27
2018-05-08T19:05:57.906Z,1.50
2018-05-08T19:08:25.452Z,1.90
2018-05-08T19:10:58.680Z,1.63
2018-05-08T19:13:26.228Z,1.80
2018-05-08T19:15:59.494Z,1.83
2018-05-08T19:18:32.673Z,2.10
2018-05-08T19:21:00.277Z,1.97
2018-05-08T19:23:27.839Z,2.00
2018-05-08T19:25:55.458Z,2.10
2018-05-08T19:28:28.690Z,1.60
2018-05-08T19:30:56.316Z,1.73
2018-05-08T19:33:23.872Z,1.70
2018-05-08T19:35:56.981Z,1.93
2018-05-08T19:38:24.527Z,2.13
2018-05-08T19:40:52.126Z,1.73
2018-05-08T19:43:19.682Z,1.83
2018-05-08T19:45:47.279Z,2.00
2018-05-08T19:48:14.836Z,1.80
2018-05-08T19:50:42.463Z,1.83
2018-05-08T19:53:10.023Z,2.20
2018-05-08T19:55:37.650Z,1.87
2018-05-08T19:58:05.232Z,1.80
2018-05-08T20:00:32.805Z,1.90
2018-05-08T20:03:00.386Z,2.30
2018-05-08T20:05:27.947Z,1.80
2018-05-08T20:07:55.560Z,2.17
2018-05-08T20:10:23.164Z,1.90
2018-05-08T20:12:51.132Z,2.00
2018-05-08T20:15:18.716Z,2.10
2018-05-08T20:17:46.295Z,1.60
2018-05-08T20:20:13.887Z,1.90
2018-05-08T20:22:41.432Z,2.50
2018-05-08T20:25:09.036Z,2.00
2018-05-08T20:27:36.654Z,1.80
2018-05-08T20:30:04.268Z,2.20
2018-05-08T20:32:31.831Z,2.80
2018-05-08T20:34:59.444Z,1.80
2018-05-08T20:37:27.023Z,1.90
2018-05-08T20:39:54.634Z,1.90
2018-05-08T20:42:22.220Z,2.20
2018-05-08T20:44:50.218Z,2.20
2018-05-08T20:47:17.839Z,1.90
2018-05-08T20:49:45.477Z,1.90
2018-05-08T20:52:13.040Z,1.90
2018-05-08T20:54:40.606Z,2.10
2018-05-08T20:57:08.299Z,1.93
2018-05-08T20:59:35.898Z,1.90
2018-05-08T21:02:03.460Z,1.90
2018-05-08T21:04:30.993Z,2.00
2018-05-08T21:06:58.574Z,1.93
2018-05-08T21:09:26.165Z,2.03
2018-05-08T21:11:53.756Z,2.10
2018-05-08T21:14:21.759Z,2.10
2018-05-08T21:16:49.394Z,2.00
2018-05-08T21:19:16.958Z,1.87
2018-05-08T21:21:44.535Z,2.13
2018-05-08T21:24:12.172Z,1.97
2018-05-08T21:26:39.757Z,2.30
2018-05-08T21:29:07.290Z,2.00
2018-05-08T21:31:34.912Z,1.97
2018-05-08T21:34:02.507Z,2.50
2018-05-08T21:36:30.107Z,2.10
2018-05-08T21:38:57.684Z,1.97
2018-05-08T21:41:25.632Z,2.10
2018-05-08T21:43:53.194Z,1.87
2018-05-08T21:46:20.796Z,2.20
2018-05-08T21:48:48.368Z,1.97
2018-05-08T21:51:15.982Z,2.13
2018-05-08T21:53:43.550Z,2.03
2018-05-08T21:56:11.116Z,2.33
2018-05-08T21:58:38.700Z,1.70
2018-05-08T22:01:06.281Z,2.07
2018-05-08T22:03:33.893Z,2.00
2018-05-08T22:06:01.541Z,2.10
2018-05-08T22:08:29.094Z,2.10
2018-05-08T22:10:56.871Z,2.20
2018-05-08T22:13:24.536Z,2.00
2018-05-08T22:15:52.101Z,2.40
2018-05-08T22:18:19.689Z,2.20
2018-05-08T22:20:47.285Z,2.17
2018-05-08T22:23:14.887Z,2.27
2018-05-08T22:25:42.515Z,2.33
2018-05-08T22:28:10.095Z,2.07
2018-05-08T22:30:37.684Z,2.40
2018-05-08T22:33:05.309Z,2.00
2018-05-08T22:35:32.858Z,2.17
2018-05-08T22:38:00.495Z,2.47
2018-05-08T22:40:28.052Z,2.23
2018-05-08T22:42:55.680Z,2.37
2018-05-08T22:45:23.260Z,2.37
2018-05-08T22:47:50.829Z,2.30
2018-05-08T22:50:18.393Z,2.03
2018-05-08T22:52:46.053Z,2.37
2018-05-08T22:55:13.584Z,2.30
2018-05-08T22:57:41.140Z,2.20
2018-05-08T23:00:08.691Z,2.20
2018-05-08T23:16:55.010Z,2.17
2018-05-08T23:19:22.637Z,2.53
2018-05-08T23:21:50.185Z,2.13
2018-05-08T23:24:17.746Z,2.20
2018-05-08T23:26:45.289Z,2.30
2018-05-08T23:29:12.897Z,2.20
2018-05-08T23:31:40.431Z,1.93
2018-05-08T23:34:07.996Z,2.13
2018-05-08T23:36:35.544Z,2.40
2018-05-08T23:39:03.088Z,2.10
2018-05-08T23:41:30.637Z,1.90
2018-05-08T23:43:58.223Z,2.27
2018-05-08T23:46:25.800Z,2.03
2018-05-08T23:48:53.373Z,2.20
2018-05-08T23:51:20.931Z,2.80
2018-05-08T23:53:48.513Z,2.67
2018-05-08T23:56:16.070Z,2.13
2018-05-08T23:58:43.643Z,2.03
